< < Back
Terminal Aerodrome Forecast


Current Version              Previous Versions:   1  2  3  4  5  6  7  8  9  

Terminal Aerodrome Forecast

198
FTUS42 KGSP 301120
TAFGSP
TAF
KGSP 301120Z 3012/3112 23006KT 6SM -SHRA SCT026 OVC040
      TEMPO 3012/3014 3SM -TSRA BR BKN026CB
     FM301400 24006KT P6SM BKN025
     FM301700 28007KT P6SM SCT060
     FM302200 32006KT P6SM FEW250
     FM310700 00000KT P6SM FEW250=



Latest METAR

101
SAUS70 KWBC 302300 RRD
MTRGSP
METAR KGSP 302253Z 25009KT 10SM CLR 20/01 A2996 RMK AO2 SLP143
T02000006


USA.gov is the U.S. government's official web portal to all federal, state and local government web resources and services.